sensor_id;sensor_type;location;lat;lon;timestamp;pressure;altitude;pressure_sealevel;temperature;humidity
53689;BME280;39583;54.682;30.662;2023-09-08T10:17:02;100107.41;;;17.86;59.19
53689;BME280;39583;54.682;30.662;2023-09-08T10:19:31;100110.47;;;18.11;59.37
53689;BME280;39583;54.682;30.662;2023-09-08T10:22:03;100103.91;;;18.34;57.96
53689;BME280;39583;54.682;30.662;2023-09-08T10:24:35;100076.28;;;18.25;57.79
53689;BME280;39583;54.682;30.662;2023-09-08T10:27:10;100092.56;;;18.20;57.98
53689;BME280;39583;54.682;30.662;2023-09-08T10:29:38;100091.44;;;18.16;58.24
53689;BME280;39583;54.682;30.662;2023-09-08T10:32:07;100089.78;;;18.15;57.97
53689;BME280;39583;54.682;30.662;2023-09-08T10:34:36;100087.88;;;18.16;57.86
53689;BME280;39583;54.682;30.662;2023-09-08T10:37:21;100084.91;;;18.39;57.89
53689;BME280;39583;54.682;30.662;2023-09-08T10:39:49;100087.81;;;18.60;57.79
53689;BME280;39583;54.682;30.662;2023-09-08T10:47:24;100065.25;;;18.91;55.83
53689;BME280;39583;54.682;30.662;2023-09-08T10:49:52;100062.94;;;19.10;54.32
53689;BME280;39583;54.682;30.662;2023-09-08T10:52:26;100069.78;;;19.12;53.64
53689;BME280;39583;54.682;30.662;2023-09-08T10:54:55;100061.09;;;19.21;53.47
53689;BME280;39583;54.682;30.662;2023-09-08T10:57:24;100038.63;;;19.51;53.58
53689;BME280;39583;54.682;30.662;2023-09-08T11:00:00;100042.66;;;19.80;52.28
53689;BME280;39583;54.682;30.662;2023-09-08T11:02:40;100020.00;;;19.85;51.52
53689;BME280;39583;54.682;30.662;2023-09-08T11:05:12;100055.03;;;19.98;51.52
53689;BME280;39583;54.682;30.662;2023-09-08T11:07:41;100037.47;;;19.89;51.92
53689;BME280;39583;54.682;30.662;2023-09-08T11:10:10;100032.88;;;19.94;51.39
53689;BME280;39583;54.682;30.662;2023-09-08T11:12:38;100028.78;;;19.97;50.19
53689;BME280;39583;54.682;30.662;2023-09-08T11:15:07;100026.59;;;19.99;49.53
53689;BME280;39583;54.682;30.662;2023-09-08T11:17:37;100032.94;;;20.15;49.20
53689;BME280;39583;54.682;30.662;2023-09-08T11:20:10;100023.44;;;20.32;48.75
53689;BME280;39583;54.682;30.662;2023-09-08T11:22:39;100023.22;;;20.70;48.04
53689;BME280;39583;54.682;30.662;2023-09-08T11:25:09;100020.75;;;20.88;46.79
53689;BME280;39583;54.682;30.662;2023-09-08T11:27:39;100011.19;;;20.76;43.98
53689;BME280;39583;54.682;30.662;2023-09-08T11:30:08;100024.84;;;20.45;43.79
53689;BME280;39583;54.682;30.662;2023-09-08T11:32:35;100002.53;;;20.01;42.85
53689;BME280;39583;54.682;30.662;2023-09-08T11:35:08;99999.94;;;19.64;43.82
53689;BME280;39583;54.682;30.662;2023-09-08T11:37:37;100008.03;;;19.49;45.57
53689;BME280;39583;54.682;30.662;2023-09-08T11:40:07;100016.69;;;19.35;45.82
53689;BME280;39583;54.682;30.662;2023-09-08T11:42:40;100024.56;;;19.27;46.62
53689;BME280;39583;54.682;30.662;2023-09-08T11:45:16;100024.56;;;19.27;46.94
53689;BME280;39583;54.682;30.662;2023-09-08T11:47:52;100017.78;;;19.34;47.33
53689;BME280;39583;54.682;30.662;2023-09-08T11:50:20;100013.22;;;19.50;47.69
53689;BME280;39583;54.682;30.662;2023-09-08T11:52:49;100009.28;;;19.68;47.57
53689;BME280;39583;54.682;30.662;2023-09-08T11:55:18;100009.81;;;19.70;48.28
53689;BME280;39583;54.682;30.662;2023-09-08T11:57:48;99988.09;;;19.48;49.01
53689;BME280;39583;54.682;30.662;2023-09-08T12:00:18;99997.66;;;19.51;49.28
53689;BME280;39583;54.682;30.662;2023-09-08T12:02:48;99999.03;;;19.48;50.07
53689;BME280;39583;54.682;30.662;2023-09-08T12:05:25;100001.84;;;19.58;50.05
53689;BME280;39583;54.682;30.662;2023-09-08T12:07:54;100002.28;;;19.45;49.75
53689;BME280;39583;54.682;30.662;2023-09-08T12:10:24;99998.38;;;19.31;50.75
53689;BME280;39583;54.682;30.662;2023-09-08T12:12:53;99993.75;;;19.31;50.73
53689;BME280;39583;54.682;30.662;2023-09-08T12:15:36;99987.81;;;19.50;50.70
53689;BME280;39583;54.682;30.662;2023-09-08T12:18:05;99984.38;;;19.64;50.21
53689;BME280;39583;54.682;30.662;2023-09-08T12:20:34;99984.00;;;19.51;49.97
53689;BME280;39583;54.682;30.662;2023-09-08T12:23:04;99974.44;;;19.48;50.02
53689;BME280;39583;54.682;30.662;2023-09-08T12:25:32;99977.16;;;19.43;50.14
53689;BME280;39583;54.682;30.662;2023-09-08T12:28:04;99974.38;;;19.38;50.12
53689;BME280;39583;54.682;30.662;2023-09-08T12:30:32;99974.72;;;19.47;50.10
53689;BME280;39583;54.682;30.662;2023-09-08T12:33:01;99972.63;;;19.59;50.09
53689;BME280;39583;54.682;30.662;2023-09-08T12:35:30;99977.38;;;19.89;49.85
53689;BME280;39583;54.682;30.662;2023-09-08T12:38:01;99961.28;;;19.97;49.42
53689;BME280;39583;54.682;30.662;2023-09-08T12:40:32;99962.63;;;19.95;49.41
53689;BME280;39583;54.682;30.662;2023-09-08T12:43:00;99962.34;;;19.86;49.28
53689;BME280;39583;54.682;30.662;2023-09-08T12:45:39;99953.59;;;19.84;49.66
53689;BME280;39583;54.682;30.662;2023-09-08T12:48:07;99953.00;;;19.77;49.89
53689;BME280;39583;54.682;30.662;2023-09-08T12:50:34;99954.94;;;19.82;50.39
53689;BME280;39583;54.682;30.662;2023-09-08T12:53:01;99934.69;;;19.78;50.53
53689;BME280;39583;54.682;30.662;2023-09-08T12:55:29;99949.69;;;19.65;51.04
53689;BME280;39583;54.682;30.662;2023-09-08T12:57:56;99938.19;;;19.58;51.59
53689;BME280;39583;54.682;30.662;2023-09-08T13:00:24;99940.84;;;19.48;52.15
53689;BME280;39583;54.682;30.662;2023-09-08T13:02:52;99943.66;;;19.63;52.00
53689;BME280;39583;54.682;30.662;2023-09-08T13:05:19;99939.56;;;19.55;51.71
53689;BME280;39583;54.682;30.662;2023-09-08T13:07:47;99934.28;;;19.43;52.03
53689;BME280;39583;54.682;30.662;2023-09-08T13:10:14;99950.34;;;19.35;52.23
53689;BME280;39583;54.682;30.662;2023-09-08T13:12:42;99941.34;;;19.34;52.43
53689;BME280;39583;54.682;30.662;2023-09-08T13:15:09;99933.69;;;19.36;52.50
53689;BME280;39583;54.682;30.662;2023-09-08T13:17:37;99933.69;;;19.36;52.61
53689;BME280;39583;54.682;30.662;2023-09-08T13:20:05;99930.91;;;19.26;52.50
53689;BME280;39583;54.682;30.662;2023-09-08T13:22:33;99911.22;;;19.19;52.63
53689;BME280;39583;54.682;30.662;2023-09-08T13:25:01;99918.13;;;19.32;52.57
53689;BME280;39583;54.682;30.662;2023-09-08T13:27:29;99933.69;;;19.31;52.33
53689;BME280;39583;54.682;30.662;2023-09-08T13:30:13;99919.69;;;19.23;52.14
53689;BME280;39583;54.682;30.662;2023-09-08T13:32:41;99921.06;;;19.15;52.13
53689;BME280;39583;54.682;30.662;2023-09-08T13:35:10;99907.06;;;19.06;52.05
53689;BME280;39583;54.682;30.662;2023-09-08T13:37:37;99916.97;;;19.18;52.02
53689;BME280;39583;54.682;30.662;2023-09-08T13:40:06;99912.31;;;19.18;52.05
53689;BME280;39583;54.682;30.662;2023-09-08T13:42:35;99912.38;;;19.28;52.30
53689;BME280;39583;54.682;30.662;2023-09-08T13:45:03;99894.09;;;19.34;52.34
53689;BME280;39583;54.682;30.662;2023-09-08T13:47:31;99914.78;;;19.25;52.33
53689;BME280;39583;54.682;30.662;2023-09-08T13:50:00;99916.44;;;19.21;52.74
53689;BME280;39583;54.682;30.662;2023-09-08T13:52:32;99884.22;;;19.18;52.71
53689;BME280;39583;54.682;30.662;2023-09-08T13:55:07;99919.47;;;19.29;53.06
53689;BME280;39583;54.682;30.662;2023-09-08T13:57:37;99914.22;;;19.18;53.29
53689;BME280;39583;54.682;30.662;2023-09-08T14:00:08;99916.09;;;19.12;53.59
53689;BME280;39583;54.682;30.662;2023-09-08T14:02:43;99920.44;;;19.03;53.88
53689;BME280;39583;54.682;30.662;2023-09-08T14:05:17;99916.31;;;19.00;54.15
53689;BME280;39583;54.682;30.662;2023-09-08T14:07:52;99907.34;;;19.05;53.92
53689;BME280;39583;54.682;30.662;2023-09-08T14:10:32;99910.63;;;19.12;54.16
53689;BME280;39583;54.682;30.662;2023-09-08T14:13:02;99912.66;;;19.32;54.14
53689;BME280;39583;54.682;30.662;2023-09-08T14:15:30;99903.50;;;19.58;54.09
53689;BME280;39583;54.682;30.662;2023-09-08T14:17:57;99904.63;;;19.72;53.84
53689;BME280;39583;54.682;30.662;2023-09-08T14:20:25;99908.22;;;19.83;53.73
53689;BME280;39583;54.682;30.662;2023-09-08T14:22:52;99911.22;;;19.87;53.95
53689;BME280;39583;54.682;30.662;2023-09-08T14:25:19;99901.97;;;19.93;53.59
53689;BME280;39583;54.682;30.662;2023-09-08T14:27:47;99896.22;;;20.04;53.09
53689;BME280;39583;54.682;30.662;2023-09-08T14:30:14;99909.34;;;20.13;53.26
53689;BME280;39583;54.682;30.662;2023-09-08T14:32:42;99903.34;;;20.06;53.35
53689;BME280;39583;54.682;30.662;2023-09-08T14:35:09;99907.72;;;20.07;53.54
53689;BME280;39583;54.682;30.662;2023-09-08T14:37:37;99907.72;;;20.07;53.40
53689;BME280;39583;54.682;30.662;2023-09-08T14:40:05;99906.06;;;19.95;53.20
53689;BME280;39583;54.682;30.662;2023-09-08T14:42:33;99908.75;;;19.75;53.45
53689;BME280;39583;54.682;30.662;2023-09-08T14:45:00;99906.78;;;19.65;53.81
53689;BME280;39583;54.682;30.662;2023-09-08T14:47:28;99902.97;;;19.56;54.15
53689;BME280;39583;54.682;30.662;2023-09-08T14:49:55;99905.88;;;19.44;54.43
53689;BME280;39583;54.682;30.662;2023-09-08T14:52:23;99861.78;;;19.10;54.67
53689;BME280;39583;54.682;30.662;2023-09-08T14:54:51;99909.34;;;19.25;54.42
53689;BME280;39583;54.682;30.662;2023-09-08T14:57:18;99901.91;;;19.10;54.78
53689;BME280;39583;54.682;30.662;2023-09-08T14:59:45;99904.56;;;19.00;55.15
53689;BME280;39583;54.682;30.662;2023-09-08T15:02:13;99904.53;;;18.90;55.67
53689;BME280;39583;54.682;30.662;2023-09-08T15:04:40;99905.00;;;18.81;56.13
53689;BME280;39583;54.682;30.662;2023-09-08T15:07:09;99899.00;;;18.79;56.29
53689;BME280;39583;54.682;30.662;2023-09-08T15:09:36;99901.38;;;18.66;56.24
53689;BME280;39583;54.682;30.662;2023-09-08T15:12:03;99902.88;;;18.51;56.73
53689;BME280;39583;54.682;30.662;2023-09-08T15:14:31;99901.44;;;18.44;56.95
53689;BME280;39583;54.682;30.662;2023-09-08T15:16:58;99907.34;;;18.36;57.28
53689;BME280;39583;54.682;30.662;2023-09-08T15:19:26;99907.84;;;18.27;57.70
53689;BME280;39583;54.682;30.662;2023-09-08T15:21:54;99901.28;;;18.23;58.24
53689;BME280;39583;54.682;30.662;2023-09-08T15:24:22;99906.41;;;18.20;58.55
53689;BME280;39583;54.682;30.662;2023-09-08T15:26:49;99906.97;;;18.22;58.61
53689;BME280;39583;54.682;30.662;2023-09-08T15:29:17;99898.28;;;18.25;58.72
53689;BME280;39583;54.682;30.662;2023-09-08T15:31:47;99898.28;;;18.25;59.07
53689;BME280;39583;54.682;30.662;2023-09-08T15:34:15;99903.38;;;18.16;59.32
53689;BME280;39583;54.682;30.662;2023-09-08T15:36:43;99897.91;;;18.11;59.76
53689;BME280;39583;54.682;30.662;2023-09-08T15:39:10;99897.53;;;18.03;59.90
53689;BME280;39583;54.682;30.662;2023-09-08T15:41:42;99897.50;;;17.97;60.05
53689;BME280;39583;54.682;30.662;2023-09-08T15:44:10;99892.75;;;17.88;60.48
53689;BME280;39583;54.682;30.662;2023-09-08T15:46:37;99892.91;;;17.76;60.87
53689;BME280;39583;54.682;30.662;2023-09-08T15:49:04;99894.09;;;17.63;61.47
53689;BME280;39583;54.682;30.662;2023-09-08T15:51:32;99884.63;;;17.44;62.05
53689;BME280;39583;54.682;30.662;2023-09-08T15:53:59;99879.91;;;17.34;62.28
53689;BME280;39583;54.682;30.662;2023-09-08T15:56:27;99895.16;;;17.35;62.65
53689;BME280;39583;54.682;30.662;2023-09-08T15:58:54;99894.50;;;17.28;63.08
53689;BME280;39583;54.682;30.662;2023-09-08T16:01:21;99899.06;;;17.23;63.50
53689;BME280;39583;54.682;30.662;2023-09-08T16:03:49;99890.81;;;17.18;63.71
53689;BME280;39583;54.682;30.662;2023-09-08T16:06:16;99891.84;;;17.12;64.02
53689;BME280;39583;54.682;30.662;2023-09-08T16:08:45;99893.91;;;17.04;64.25
53689;BME280;39583;54.682;30.662;2023-09-08T16:11:13;99889.25;;;17.00;64.66
53689;BME280;39583;54.682;30.662;2023-09-08T16:13:41;99891.91;;;16.95;64.85
53689;BME280;39583;54.682;30.662;2023-09-08T16:16:08;99887.75;;;16.92;65.00
53689;BME280;39583;54.682;30.662;2023-09-08T16:18:35;99891.25;;;16.88;65.02
53689;BME280;39583;54.682;30.662;2023-09-08T16:21:03;99889.03;;;16.85;65.32
53689;BME280;39583;54.682;30.662;2023-09-08T16:23:31;99888.72;;;16.81;65.39
53689;BME280;39583;54.682;30.662;2023-09-08T16:25:59;99890.84;;;16.79;65.41
53689;BME280;39583;54.682;30.662;2023-09-08T16:28:26;99890.53;;;16.75;65.62
53689;BME280;39583;54.682;30.662;2023-09-08T16:30:54;99891.28;;;16.71;65.74
53689;BME280;39583;54.682;30.662;2023-09-08T16:33:22;99891.16;;;16.66;66.00
53689;BME280;39583;54.682;30.662;2023-09-08T16:35:53;99892.97;;;16.60;66.46
53689;BME280;39583;54.682;30.662;2023-09-08T16:38:21;99903.19;;;16.53;66.59
53689;BME280;39583;54.682;30.662;2023-09-08T16:40:49;99891.69;;;16.46;67.51
53689;BME280;39583;54.682;30.662;2023-09-08T16:43:16;99901.56;;;16.35;68.41
53689;BME280;39583;54.682;30.662;2023-09-08T16:45:44;99901.97;;;16.27;69.25
53689;BME280;39583;54.682;30.662;2023-09-08T16:48:11;99902.38;;;16.19;69.88
53689;BME280;39583;54.682;30.662;2023-09-08T16:50:40;99900.06;;;16.11;70.59
53689;BME280;39583;54.682;30.662;2023-09-08T16:53:08;99897.75;;;16.03;71.09
53689;BME280;39583;54.682;30.662;2023-09-08T16:55:36;99891.91;;;15.94;71.75
53689;BME280;39583;54.682;30.662;2023-09-08T16:58:04;99896.88;;;15.85;72.43
53689;BME280;39583;54.682;30.662;2023-09-08T17:00:31;99900.25;;;15.76;72.99
53689;BME280;39583;54.682;30.662;2023-09-08T17:02:59;99899.56;;;15.69;73.27
53689;BME280;39583;54.682;30.662;2023-09-08T17:05:26;99906.56;;;15.65;73.57
53689;BME280;39583;54.682;30.662;2023-09-08T17:07:53;99912.69;;;15.60;74.04
53689;BME280;39583;54.682;30.662;2023-09-08T17:10:23;99916.59;;;15.64;74.16
53689;BME280;39583;54.682;30.662;2023-09-08T17:12:51;99926.03;;;15.61;74.26
53689;BME280;39583;54.682;30.662;2023-09-08T17:15:18;99916.84;;;15.62;74.29
53689;BME280;39583;54.682;30.662;2023-09-08T17:17:46;99914.94;;;15.63;74.39
53689;BME280;39583;54.682;30.662;2023-09-08T17:20:13;99910.56;;;15.62;74.58
53689;BME280;39583;54.682;30.662;2023-09-08T17:22:42;99909.97;;;15.60;74.76
53689;BME280;39583;54.682;30.662;2023-09-08T17:25:09;99916.44;;;15.59;74.83
53689;BME280;39583;54.682;30.662;2023-09-08T17:27:41;99916.44;;;15.59;74.70
53689;BME280;39583;54.682;30.662;2023-09-08T17:30:09;99918.69;;;15.62;74.66
53689;BME280;39583;54.682;30.662;2023-09-08T17:32:37;99927.22;;;15.66;74.55
53689;BME280;39583;54.682;30.662;2023-09-08T17:35:05;99925.66;;;15.70;74.77
53689;BME280;39583;54.682;30.662;2023-09-08T17:37:33;99916.69;;;15.69;74.61
53689;BME280;39583;54.682;30.662;2023-09-08T17:40:00;99914.78;;;15.70;74.55
53689;BME280;39583;54.682;30.662;2023-09-08T17:42:28;99914.47;;;15.66;74.62
53689;BME280;39583;54.682;30.662;2023-09-08T17:44:56;99913.06;;;15.63;74.97
53689;BME280;39583;54.682;30.662;2023-09-08T17:47:23;99915.16;;;15.61;74.94
53689;BME280;39583;54.682;30.662;2023-09-08T17:49:50;99917.88;;;15.61;74.79
53689;BME280;39583;54.682;30.662;2023-09-08T17:52:18;99923.56;;;15.60;74.95
53689;BME280;39583;54.682;30.662;2023-09-08T17:54:46;99913.72;;;15.59;74.77
53689;BME280;39583;54.682;30.662;2023-09-08T17:57:13;99915.03;;;15.56;74.83
53689;BME280;39583;54.682;30.662;2023-09-08T17:59:40;99925.91;;;15.56;75.47
53689;BME280;39583;54.682;30.662;2023-09-08T18:02:08;99922.59;;;15.54;75.52
53689;BME280;39583;54.682;30.662;2023-09-08T18:04:35;99925.81;;;15.51;75.75
53689;BME280;39583;54.682;30.662;2023-09-08T18:07:03;99919.94;;;15.43;76.09
53689;BME280;39583;54.682;30.662;2023-09-08T18:09:31;99915.94;;;15.33;76.29
53689;BME280;39583;54.682;30.662;2023-09-08T18:12:00;99920.44;;;15.28;76.35
53689;BME280;39583;54.682;30.662;2023-09-08T18:14:28;99932.84;;;15.12;77.02
53689;BME280;39583;54.682;30.662;2023-09-08T18:16:56;99937.81;;;14.92;77.14
53689;BME280;39583;54.682;30.662;2023-09-08T18:19:23;99929.00;;;14.73;77.77
53689;BME280;39583;54.682;30.662;2023-09-08T18:21:51;99931.09;;;14.59;78.03
53689;BME280;39583;54.682;30.662;2023-09-08T18:24:19;99940.88;;;14.49;78.45
53689;BME280;39583;54.682;30.662;2023-09-08T18:26:48;99935.75;;;14.40;78.79
53689;BME280;39583;54.682;30.662;2023-09-08T18:29:17;99935.03;;;14.33;78.70
53689;BME280;39583;54.682;30.662;2023-09-08T18:31:44;99935.38;;;14.25;78.68
53689;BME280;39583;54.682;30.662;2023-09-08T18:34:12;99935.94;;;14.15;78.92
53689;BME280;39583;54.682;30.662;2023-09-08T18:36:40;99935.81;;;14.10;79.07
53689;BME280;39583;54.682;30.662;2023-09-08T18:39:07;99931.53;;;14.03;79.11
53689;BME280;39583;54.682;30.662;2023-09-08T18:41:35;99934.94;;;13.98;79.23
53689;BME280;39583;54.682;30.662;2023-09-08T18:44:04;99939.19;;;13.94;79.42
53689;BME280;39583;54.682;30.662;2023-09-08T18:46:31;99935.25;;;13.90;79.57
53689;BME280;39583;54.682;30.662;2023-09-08T18:48:59;99928.44;;;13.87;79.59
53689;BME280;39583;54.682;30.662;2023-09-08T18:51:26;99933.47;;;13.84;79.81
53689;BME280;39583;54.682;30.662;2023-09-08T18:53:54;99933.72;;;13.82;79.96
53689;BME280;39583;54.682;30.662;2023-09-08T18:56:22;99933.72;;;13.82;79.79
53689;BME280;39583;54.682;30.662;2023-09-08T18:58:49;99933.00;;;13.87;79.79
53689;BME280;39583;54.682;30.662;2023-09-08T19:01:17;99932.31;;;13.92;79.71
53689;BME280;39583;54.682;30.662;2023-09-08T19:03:44;99929.28;;;14.00;79.69
53689;BME280;39583;54.682;30.662;2023-09-08T19:06:12;99921.69;;;14.08;79.49
53689;BME280;39583;54.682;30.662;2023-09-08T19:08:41;99926.38;;;14.13;79.32
53689;BME280;39583;54.682;30.662;2023-09-08T19:11:09;99931.09;;;14.17;79.19
